Ipu, Brazil
Current Conditions -  °F | °C
As of 7:00 PM on Friday 26 Dec 2014 (Local Time) from SBPB Reporting Station
Broken Clouds Broken Clouds  
Wind Chill: 84°   Ceiling: 9000
Heat Index: 91°   Visibility: 6mi
Dew Point: 73°   Wind: 18mph
Humidity: 70%   Direction: 70°ENE
Pressure: 29.88"   Gusts: NA
Location:  4.32°S, 40.71°W
Report Text: SBPB 262200Z 07016KT 9999 FEW020 BKN090 29/23 Q1012
Loading
Personal Weather Stations






























Interactive Weather Map New forecast layout! Learn more

10-Day Weather Forecast

Advertisements
Track Severe Weather on mobile